createdAt,value
2023-02-13T00:00:56.681Z,6.00
2023-02-13T00:03:24.247Z,6.00
2023-02-13T00:05:51.940Z,6.00
2023-02-13T00:08:19.390Z,6.00
2023-02-13T00:10:48.260Z,6.00
2023-02-13T00:13:16.310Z,6.00
2023-02-13T00:15:44.033Z,6.10
2023-02-13T00:18:11.524Z,6.10
2023-02-13T00:20:38.965Z,6.10
2023-02-13T00:23:06.499Z,6.20
2023-02-13T00:25:34.007Z,6.20
2023-02-13T00:28:01.580Z,6.20
2023-02-13T00:30:29.215Z,6.30
2023-02-13T00:32:56.617Z,6.30
2023-02-13T00:35:25.457Z,6.30
2023-02-13T00:37:53.377Z,6.30
2023-02-13T00:40:25.267Z,6.30
2023-02-13T00:42:52.975Z,6.30
2023-02-13T00:45:20.456Z,6.30
2023-02-13T00:47:48.059Z,6.30
2023-02-13T00:50:15.798Z,6.20
2023-02-13T00:52:43.329Z,6.20
2023-02-13T00:55:10.889Z,6.20
2023-02-13T00:57:38.448Z,6.20
2023-02-13T01:00:06.705Z,6.10
2023-02-13T01:02:36.291Z,6.10
2023-02-13T01:05:04.004Z,6.10
2023-02-13T01:07:31.436Z,6.00
2023-02-13T01:09:58.908Z,6.00
2023-02-13T01:12:28.008Z,5.90
2023-02-13T01:14:56.167Z,5.80
2023-02-13T01:17:23.952Z,5.80
2023-02-13T01:19:51.484Z,5.70
2023-02-13T01:22:20.455Z,5.70
2023-02-13T01:24:49.857Z,5.70
2023-02-13T01:27:18.138Z,5.60
2023-02-13T01:29:45.695Z,5.50
2023-02-13T01:32:13.526Z,5.50
2023-02-13T01:34:41.127Z,5.50
2023-02-13T01:37:08.617Z,5.50
2023-02-13T01:39:36.258Z,5.50
2023-02-13T01:42:04.328Z,5.40
2023-02-13T01:45:22.749Z,5.40
2023-02-13T01:47:55.266Z,5.50
2023-02-13T01:50:37.189Z,5.50
2023-02-13T01:53:13.597Z,5.60
2023-02-13T01:55:49.266Z,5.60
2023-02-13T01:58:22.912Z,5.60
2023-02-13T02:00:50.705Z,5.60
2023-02-13T02:03:25.062Z,5.60
2023-02-13T02:05:55.728Z,5.60
2023-02-13T02:08:24.574Z,5.70
2023-02-13T02:10:57.135Z,5.60
2023-02-13T02:13:26.658Z,5.60
2023-02-13T02:15:54.757Z,5.60
2023-02-13T02:18:24.207Z,5.50
2023-02-13T02:21:09.990Z,5.50
2023-02-13T02:23:52.614Z,5.40
2023-02-13T02:26:47.219Z,5.40
2023-02-13T02:29:34.350Z,5.30
2023-02-13T02:32:17.108Z,5.30
2023-02-13T02:34:47.258Z,5.20
2023-02-13T02:37:35.328Z,5.20
2023-02-13T02:40:23.070Z,5.20
2023-02-13T02:43:19.759Z,5.20
2023-02-13T02:46:06.167Z,5.10
2023-02-13T02:49:20.353Z,5.10
2023-02-13T02:52:05.225Z,5.00
2023-02-13T02:55:11.152Z,4.90
2023-02-13T02:58:28.425Z,4.90
2023-02-13T03:01:19.274Z,4.90
2023-02-13T03:04:07.603Z,4.90
2023-02-13T03:06:44.619Z,4.90
2023-02-13T03:09:36.158Z,4.90
2023-02-13T03:12:22.610Z,4.80
2023-02-13T03:14:50.011Z,4.80
2023-02-13T03:17:51.321Z,4.70
2023-02-13T03:21:17.563Z,4.70
2023-02-13T03:24:04.147Z,4.70
2023-02-13T03:26:50.189Z,4.60
2023-02-13T03:30:07.387Z,4.70
2023-02-13T03:32:57.018Z,4.70
2023-02-13T03:36:17.168Z,4.60
2023-02-13T03:38:48.311Z,4.70
2023-02-13T03:41:38.646Z,4.70
2023-02-13T03:44:27.126Z,4.80
2023-02-13T03:46:58.376Z,4.70
2023-02-13T03:49:47.818Z,4.70
2023-02-13T03:52:31.249Z,4.70
2023-02-13T03:55:26.098Z,4.70
2023-02-13T03:58:16.973Z,4.80
2023-02-13T04:00:50.792Z,4.90
2023-02-13T04:03:23.868Z,4.80
2023-02-13T04:05:57.884Z,4.70
2023-02-13T04:08:25.412Z,4.70
2023-02-13T04:11:15.457Z,4.70
2023-02-13T04:13:53.049Z,4.60
2023-02-13T04:16:44.404Z,4.60
2023-02-13T04:19:12.824Z,4.60
2023-02-13T04:21:40.958Z,4.50
2023-02-13T04:24:09.524Z,4.40
2023-02-13T04:26:39.921Z,4.40
2023-02-13T04:29:08.450Z,4.50
2023-02-13T04:31:36.312Z,4.40
2023-02-13T04:34:03.894Z,4.30
2023-02-13T04:36:31.573Z,4.40
2023-02-13T04:38:59.080Z,4.40
2023-02-13T04:41:26.607Z,4.50
2023-02-13T04:43:54.071Z,4.40
2023-02-13T04:46:21.570Z,4.40
2023-02-13T04:48:49.234Z,4.40
2023-02-13T04:51:16.655Z,4.50
2023-02-13T04:53:44.215Z,4.40
2023-02-13T04:56:11.663Z,4.40
2023-02-13T04:58:39.236Z,4.40
2023-02-13T05:01:14.479Z,4.30
2023-02-13T05:03:42.337Z,4.30
2023-02-13T05:06:09.948Z,4.30
2023-02-13T05:08:37.651Z,4.30
2023-02-13T05:11:05.345Z,4.30
2023-02-13T05:13:33.282Z,4.20
2023-02-13T05:16:00.884Z,4.30
2023-02-13T05:18:28.354Z,4.20
2023-02-13T05:21:14.576Z,4.10
2023-02-13T05:23:42.098Z,4.10
2023-02-13T05:26:09.488Z,4.20
2023-02-13T05:28:55.497Z,4.20
2023-02-13T05:31:23.106Z,4.10
2023-02-13T05:33:50.619Z,4.10
2023-02-13T05:36:18.112Z,4.10
2023-02-13T05:38:45.529Z,4.00
2023-02-13T05:41:13.672Z,4.00
2023-02-13T05:43:41.151Z,3.90
2023-02-13T05:46:09.959Z,3.90
2023-02-13T05:48:37.468Z,3.90
2023-02-13T05:51:06.365Z,3.80
2023-02-13T05:53:37.664Z,3.80
2023-02-13T05:56:06.653Z,3.90
2023-02-13T05:58:34.917Z,3.80
2023-02-13T06:01:02.953Z,3.70
2023-02-13T06:03:31.622Z,3.70
2023-02-13T06:05:59.653Z,3.70
2023-02-13T06:08:27.193Z,3.70
2023-02-13T06:10:54.823Z,3.50
2023-02-13T06:13:22.362Z,3.60
2023-02-13T06:15:50.967Z,3.60
2023-02-13T06:18:18.648Z,3.50
2023-02-13T06:20:46.209Z,3.40
2023-02-13T06:23:14.094Z,3.40
2023-02-13T06:25:41.944Z,3.50
2023-02-13T06:28:09.662Z,3.50
2023-02-13T06:30:37.275Z,3.40
2023-02-13T06:33:04.789Z,3.40
2023-02-13T06:35:32.385Z,3.40
2023-02-13T06:37:59.858Z,3.30
2023-02-13T06:40:27.320Z,3.30
2023-02-13T06:42:54.779Z,3.30
2023-02-13T06:45:22.338Z,3.30
2023-02-13T06:47:50.290Z,3.30
2023-02-13T06:50:18.787Z,3.30
2023-02-13T06:52:48.200Z,3.30
2023-02-13T06:55:16.285Z,3.30
2023-02-13T06:57:44.757Z,3.30
2023-02-13T07:00:13.998Z,3.20
2023-02-13T07:02:43.217Z,3.30
2023-02-13T07:05:11.615Z,3.20
2023-02-13T07:07:41.116Z,3.30
2023-02-13T07:10:12.867Z,3.30
2023-02-13T07:12:40.950Z,3.30
2023-02-13T07:15:08.817Z,3.30
2023-02-13T07:17:36.473Z,3.30
2023-02-13T07:20:05.676Z,3.30
2023-02-13T07:22:33.476Z,3.30
2023-02-13T07:25:01.538Z,3.20
2023-02-13T07:27:29.477Z,3.30
2023-02-13T07:29:57.774Z,3.20
2023-02-13T07:32:26.309Z,3.30
2023-02-13T07:35:01.763Z,3.20
2023-02-13T07:37:31.434Z,3.20
2023-02-13T07:39:59.069Z,3.10
2023-02-13T07:42:26.648Z,3.10
2023-02-13T07:44:54.323Z,3.10
2023-02-13T07:47:21.920Z,3.00
2023-02-13T07:49:49.410Z,3.00
2023-02-13T07:52:16.910Z,3.00
2023-02-13T07:54:47.649Z,3.00
2023-02-13T07:57:16.813Z,3.10
2023-02-13T07:59:44.432Z,3.20
2023-02-13T08:02:14.413Z,3.30
2023-02-13T08:04:46.571Z,3.30
2023-02-13T08:07:15.406Z,3.40
2023-02-13T08:10:04.097Z,3.60
2023-02-13T08:12:34.858Z,3.70
2023-02-13T08:15:02.717Z,3.70
2023-02-13T08:17:30.239Z,3.80
2023-02-13T08:19:58.201Z,3.90
2023-02-13T08:22:25.784Z,4.00
2023-02-13T08:24:53.314Z,4.10
2023-02-13T08:27:20.839Z,4.10
2023-02-13T08:29:50.813Z,4.20
2023-02-13T08:32:18.544Z,4.20
2023-02-13T08:34:46.245Z,4.20
2023-02-13T08:37:13.911Z,4.20
2023-02-13T08:39:43.707Z,4.30
2023-02-13T08:42:15.160Z,4.30
2023-02-13T08:44:44.451Z,4.40
2023-02-13T08:47:12.062Z,4.50
2023-02-13T08:49:40.799Z,4.50
2023-02-13T08:52:08.380Z,4.50
2023-02-13T08:54:38.620Z,4.70
2023-02-13T08:57:06.182Z,4.80
2023-02-13T08:59:33.842Z,4.90
2023-02-13T09:02:01.518Z,4.90
2023-02-13T09:04:29.236Z,5.00
2023-02-13T09:06:57.000Z,5.10
2023-02-13T09:09:24.576Z,5.10
2023-02-13T09:11:52.548Z,5.20
2023-02-13T09:14:19.993Z,5.20
2023-02-13T09:16:47.616Z,5.40
2023-02-13T09:19:15.588Z,5.40
2023-02-13T09:21:43.141Z,5.40
2023-02-13T09:24:11.380Z,5.50
2023-02-13T09:26:39.017Z,5.50
2023-02-13T09:29:06.538Z,5.50
2023-02-13T09:31:34.290Z,5.50
2023-02-13T09:34:01.796Z,5.60
2023-02-13T09:36:29.404Z,5.60
2023-02-13T09:38:58.166Z,5.60
2023-02-13T09:41:34.306Z,5.60
2023-02-13T09:44:06.547Z,5.70
2023-02-13T09:46:39.924Z,5.70
2023-02-13T09:49:19.686Z,5.70
2023-02-13T09:51:55.697Z,5.70
2023-02-13T09:54:23.064Z,5.80
2023-02-13T09:57:15.259Z,5.80
2023-02-13T09:59:57.242Z,5.80
2023-02-13T10:02:54.796Z,5.80
2023-02-13T10:05:58.446Z,5.90
2023-02-13T10:08:41.746Z,5.90
2023-02-13T10:11:35.355Z,5.90
2023-02-13T10:14:23.165Z,5.90
2023-02-13T10:17:33.209Z,5.90
2023-02-13T10:20:07.087Z,6.00
2023-02-13T10:22:42.978Z,6.00
2023-02-13T10:25:25.288Z,6.00
2023-02-13T10:28:05.929Z,6.00
2023-02-13T10:30:47.507Z,6.00
2023-02-13T10:33:36.707Z,6.10
2023-02-13T10:36:06.952Z,6.10
2023-02-13T10:38:43.381Z,6.10
2023-02-13T10:41:26.421Z,6.20
2023-02-13T10:43:57.051Z,6.20
2023-02-13T10:46:46.285Z,6.30
2023-02-13T10:49:20.216Z,6.30
2023-02-13T10:52:14.983Z,6.30
2023-02-13T10:54:57.452Z,6.40
2023-02-13T10:57:34.084Z,6.40
2023-02-13T11:00:31.996Z,6.50
2023-02-13T11:03:00.261Z,6.60
2023-02-13T11:05:41.651Z,6.60
2023-02-13T11:08:35.277Z,6.60
2023-02-13T11:11:02.855Z,6.70
2023-02-13T11:13:30.746Z,6.70
2023-02-13T11:16:13.958Z,6.70
2023-02-13T11:18:48.918Z,6.80
2023-02-13T11:21:34.452Z,6.90
2023-02-13T11:24:03.237Z,6.90
2023-02-13T11:26:36.772Z,7.00
2023-02-13T11:29:20.992Z,7.20
2023-02-13T11:32:04.339Z,7.30
2023-02-13T11:34:34.054Z,7.40
2023-02-13T11:37:13.511Z,7.50
2023-02-13T11:39:43.142Z,7.70
2023-02-13T11:42:34.755Z,7.90
2023-02-13T11:45:06.588Z,7.90
2023-02-13T11:47:40.093Z,7.90
2023-02-13T11:50:26.034Z,7.90
2023-02-13T11:53:06.340Z,8.00
2023-02-13T11:55:38.254Z,8.20
2023-02-13T11:58:12.016Z,8.40
2023-02-13T12:00:41.661Z,8.50
2023-02-13T12:03:21.825Z,8.50
2023-02-13T12:06:06.716Z,8.60
2023-02-13T12:08:38.481Z,8.70
2023-02-13T12:11:39.629Z,8.90
2023-02-13T12:14:14.133Z,9.10
2023-02-13T12:16:43.784Z,9.00
2023-02-13T12:19:42.645Z,9.00
2023-02-13T12:22:22.296Z,9.00
2023-02-13T12:25:19.030Z,9.10
2023-02-13T12:28:08.458Z,9.10
2023-02-13T12:30:45.239Z,9.20
2023-02-13T12:33:37.120Z,9.20
2023-02-13T12:36:32.564Z,9.30
2023-02-13T12:39:26.373Z,9.10
2023-02-13T12:42:03.224Z,9.00
2023-02-13T12:44:42.891Z,9.20
2023-02-13T12:47:31.488Z,9.30
2023-02-13T12:50:01.802Z,9.40
2023-02-13T12:53:07.755Z,9.40
2023-02-13T12:55:47.291Z,9.30
2023-02-13T12:58:39.334Z,9.40
2023-02-13T13:01:36.588Z,9.50
2023-02-13T13:04:23.012Z,9.50
2023-02-13T13:06:57.063Z,9.50
2023-02-13T13:09:45.961Z,9.50
2023-02-13T13:12:25.731Z,9.50
2023-02-13T13:15:01.759Z,9.50
2023-02-13T13:17:38.231Z,9.50
2023-02-13T13:20:14.610Z,9.50
2023-02-13T13:22:53.736Z,9.60
2023-02-13T13:25:33.893Z,9.60
2023-02-13T13:28:05.858Z,9.70
2023-02-13T13:30:36.781Z,9.50
2023-02-13T13:33:18.171Z,9.60
2023-02-13T13:36:01.023Z,9.70
2023-02-13T13:38:54.142Z,9.60
2023-02-13T13:41:49.415Z,9.60
2023-02-13T13:44:31.950Z,9.50
2023-02-13T13:47:32.475Z,9.40
2023-02-13T13:50:02.183Z,9.30
2023-02-13T13:52:34.090Z,9.40
2023-02-13T13:55:04.503Z,9.30
2023-02-13T13:57:41.169Z,9.30
2023-02-13T14:00:08.689Z,9.30
2023-02-13T14:02:42.256Z,9.40
2023-02-13T14:05:29.214Z,9.30
2023-02-13T14:08:03.705Z,9.40
2023-02-13T14:10:31.314Z,9.40
2023-02-13T14:12:59.816Z,9.20
2023-02-13T14:15:39.364Z,9.30
2023-02-13T14:18:17.855Z,9.40
2023-02-13T14:20:51.121Z,9.40
2023-02-13T14:23:33.158Z,9.50
2023-02-13T14:26:41.165Z,9.40
2023-02-13T14:29:11.728Z,9.40
2023-02-13T14:32:26.757Z,9.40
2023-02-13T14:35:19.170Z,9.30
2023-02-13T14:37:57.729Z,9.20
2023-02-13T14:40:42.276Z,9.10
2023-02-13T14:43:32.886Z,9.10
2023-02-13T14:46:19.303Z,8.90
2023-02-13T14:48:51.621Z,8.80
2023-02-13T14:51:37.095Z,8.90
2023-02-13T14:54:16.858Z,8.80
2023-02-13T14:56:49.926Z,8.80
2023-02-13T14:59:21.115Z,8.80
2023-02-13T15:01:53.985Z,8.80
2023-02-13T15:04:35.619Z,8.70
2023-02-13T15:07:05.738Z,8.70
2023-02-13T15:09:40.425Z,8.70
2023-02-13T15:12:28.022Z,8.70
2023-02-13T15:14:55.693Z,8.70
2023-02-13T15:17:26.857Z,8.70
2023-02-13T15:20:04.663Z,8.60
2023-02-13T15:22:39.327Z,8.60
2023-02-13T15:25:09.353Z,8.60
2023-02-13T15:27:43.238Z,8.60
2023-02-13T15:30:24.197Z,8.50
2023-02-13T15:32:57.523Z,8.50
2023-02-13T15:35:37.210Z,8.60
2023-02-13T15:38:28.028Z,8.60
2023-02-13T15:41:02.812Z,8.50
2023-02-13T15:43:43.792Z,8.50
2023-02-13T15:46:35.504Z,8.50
2023-02-13T15:49:08.941Z,8.50
2023-02-13T15:51:36.697Z,8.50
2023-02-13T15:54:07.475Z,8.50
2023-02-13T15:56:35.524Z,8.40
2023-02-13T15:59:04.165Z,8.40
2023-02-13T16:01:32.956Z,8.40
2023-02-13T16:04:05.313Z,8.30
2023-02-13T16:06:34.235Z,8.30
2023-02-13T16:09:02.575Z,8.30
2023-02-13T16:11:39.583Z,8.20
2023-02-13T16:14:21.157Z,8.20
2023-02-13T16:16:53.628Z,8.10
2023-02-13T16:19:34.839Z,8.10
2023-02-13T16:22:07.545Z,8.10
2023-02-13T16:24:36.932Z,8.00
2023-02-13T16:27:04.504Z,8.00
2023-02-13T16:29:32.183Z,7.90
2023-02-13T16:32:07.227Z,7.90
2023-02-13T16:34:34.822Z,7.90
2023-02-13T16:37:02.297Z,7.80
2023-02-13T16:39:33.129Z,7.80
2023-02-13T16:42:01.628Z,7.70
2023-02-13T16:44:33.090Z,7.70
2023-02-13T16:47:04.505Z,7.70
2023-02-13T16:49:37.579Z,7.70
2023-02-13T16:52:12.444Z,7.60
2023-02-13T16:54:49.405Z,7.60
2023-02-13T16:57:24.222Z,7.50
2023-02-13T16:59:56.295Z,7.50
2023-02-13T17:02:27.651Z,7.40
2023-02-13T17:04:59.880Z,7.40
2023-02-13T17:07:30.525Z,7.30
2023-02-13T17:10:02.146Z,7.30
2023-02-13T17:12:31.513Z,7.20
2023-02-13T17:14:59.873Z,7.20
2023-02-13T17:17:30.284Z,7.10
2023-02-13T17:19:58.871Z,7.10
2023-02-13T17:22:31.995Z,7.10
2023-02-13T17:25:01.134Z,7.00
2023-02-13T17:27:28.682Z,7.00
2023-02-13T17:29:56.303Z,7.00
2023-02-13T17:32:26.799Z,6.90
2023-02-13T17:34:54.667Z,6.90
2023-02-13T17:37:27.910Z,6.90
2023-02-13T17:39:55.973Z,6.90
2023-02-13T17:42:28.923Z,6.80
2023-02-13T17:44:58.433Z,6.80
2023-02-13T17:47:26.589Z,6.70
2023-02-13T17:50:02.059Z,6.70
2023-02-13T17:52:35.189Z,6.70
2023-02-13T17:55:02.734Z,6.60
2023-02-13T17:57:30.340Z,6.60
2023-02-13T17:59:59.298Z,6.60
2023-02-13T18:02:27.986Z,6.60
2023-02-13T18:04:55.609Z,6.60
2023-02-13T18:07:23.212Z,6.50
2023-02-13T18:09:50.813Z,6.50
2023-02-13T18:12:24.228Z,6.50
2023-02-13T18:14:53.050Z,6.50
2023-02-13T18:17:20.995Z,6.50
2023-02-13T18:19:50.488Z,6.50
2023-02-13T18:22:18.206Z,6.50
2023-02-13T18:24:45.762Z,6.40
2023-02-13T18:27:13.304Z,6.40
2023-02-13T18:29:41.110Z,6.40
2023-02-13T18:32:10.782Z,6.40
2023-02-13T18:34:39.616Z,6.40
2023-02-13T18:37:08.612Z,6.30
2023-02-13T18:39:36.145Z,6.30
2023-02-13T18:42:03.794Z,6.20
2023-02-13T18:44:32.057Z,6.30
2023-02-13T18:47:00.511Z,6.20
2023-02-13T18:49:28.153Z,6.30
2023-02-13T18:51:56.095Z,6.30
2023-02-13T18:54:23.691Z,6.20
2023-02-13T18:56:51.279Z,6.20
2023-02-13T18:59:18.857Z,6.20
2023-02-13T19:01:46.471Z,6.20
2023-02-13T19:04:14.143Z,6.20
2023-02-13T19:06:43.481Z,6.10
2023-02-13T19:09:11.520Z,6.10
2023-02-13T19:11:39.540Z,6.10
2023-02-13T19:14:07.659Z,6.00
2023-02-13T19:16:35.839Z,6.00
2023-02-13T19:19:06.687Z,5.90
2023-02-13T19:21:36.839Z,5.90
2023-02-13T19:24:07.961Z,5.90
2023-02-13T19:26:35.977Z,5.90
2023-02-13T19:29:04.164Z,5.90
2023-02-13T19:31:32.957Z,5.90
2023-02-13T19:34:02.677Z,5.80
2023-02-13T19:36:30.339Z,5.80
2023-02-13T19:39:03.993Z,5.80
2023-02-13T19:41:32.935Z,5.80
2023-02-13T19:44:05.352Z,5.70
2023-02-13T19:46:33.210Z,5.70
2023-02-13T19:49:01.027Z,5.70
2023-02-13T19:51:30.906Z,5.70
2023-02-13T19:54:01.237Z,5.70
2023-02-13T19:56:30.913Z,5.60
2023-02-13T19:58:58.677Z,5.70
2023-02-13T20:01:28.911Z,5.60
2023-02-13T20:03:57.225Z,5.60
2023-02-13T20:06:31.196Z,5.60
2023-02-13T20:09:01.820Z,5.60
2023-02-13T20:11:29.479Z,5.60
2023-02-13T20:14:00.808Z,5.60
2023-02-13T20:16:33.136Z,5.60
2023-02-13T20:19:03.699Z,5.60
2023-02-13T20:21:31.622Z,5.60
2023-02-13T20:23:59.980Z,5.60
2023-02-13T20:26:27.552Z,5.60
2023-02-13T20:28:58.530Z,5.60
2023-02-13T20:31:26.689Z,5.60
2023-02-13T20:33:54.511Z,5.70
2023-02-13T20:36:25.083Z,5.60
2023-02-13T20:38:56.053Z,5.40
2023-02-13T20:41:26.499Z,5.50
2023-02-13T20:44:01.206Z,5.50
2023-02-13T20:46:33.596Z,5.50
2023-02-13T20:49:01.648Z,5.50
2023-02-13T20:51:30.758Z,5.40
2023-02-13T20:53:59.940Z,5.40
2023-02-13T20:56:28.586Z,5.40
2023-02-13T20:58:58.866Z,5.50
2023-02-13T21:01:29.557Z,5.40
2023-02-13T21:03:57.564Z,5.40
2023-02-13T21:06:30.940Z,5.40
2023-02-13T21:09:02.659Z,5.30
2023-02-13T21:11:30.590Z,5.30
2023-02-13T21:13:58.480Z,5.30
2023-02-13T21:16:28.774Z,5.30
2023-02-13T21:19:00.367Z,5.20
2023-02-13T21:21:31.815Z,5.20
2023-02-13T21:24:03.735Z,5.20
2023-02-13T21:26:33.081Z,5.20
2023-02-13T21:29:00.795Z,5.10
2023-02-13T21:31:31.772Z,5.10
2023-02-13T21:34:03.228Z,5.10
2023-02-13T21:36:32.016Z,5.20
2023-02-13T21:39:00.188Z,5.10
2023-02-13T21:41:28.217Z,5.10
2023-02-13T21:43:55.778Z,5.00
2023-02-13T21:46:28.620Z,5.10
2023-02-13T21:49:01.343Z,5.10
2023-02-13T21:51:31.357Z,5.00
2023-02-13T21:53:59.193Z,5.00
2023-02-13T21:56:30.278Z,4.90
2023-02-13T21:58:58.645Z,5.00
2023-02-13T22:01:29.861Z,4.90
2023-02-13T22:04:01.223Z,4.90
2023-02-13T22:06:30.752Z,4.90
2023-02-13T22:09:04.044Z,4.90
2023-02-13T22:11:33.144Z,4.90
2023-02-13T22:14:02.872Z,4.90
2023-02-13T22:16:32.589Z,4.90
2023-02-13T22:19:00.964Z,4.90
2023-02-13T22:21:31.005Z,4.80
2023-02-13T22:23:59.176Z,4.80
2023-02-13T22:26:32.272Z,4.90
2023-02-13T22:29:05.124Z,4.90
2023-02-13T22:31:33.386Z,4.80
2023-02-13T22:34:04.691Z,4.80
2023-02-13T22:36:35.199Z,4.90
2023-02-13T22:39:02.856Z,4.80
2023-02-13T22:41:31.445Z,4.90
2023-02-13T22:43:59.069Z,4.80
2023-02-13T22:46:30.002Z,4.90
2023-02-13T22:48:58.787Z,4.90
2023-02-13T22:51:31.349Z,4.80
2023-02-13T22:53:59.807Z,4.90
2023-02-13T22:56:28.627Z,4.80
2023-02-13T22:58:56.688Z,4.80
2023-02-13T23:01:26.596Z,4.80
2023-02-13T23:03:55.214Z,4.80
2023-02-13T23:06:23.520Z,4.70
2023-02-13T23:08:54.598Z,4.70
2023-02-13T23:11:44.070Z,4.70
2023-02-13T23:14:11.805Z,4.70
2023-02-13T23:16:58.879Z,4.70
2023-02-13T23:19:27.762Z,4.70
2023-02-13T23:21:55.721Z,4.60
2023-02-13T23:24:23.937Z,4.60
2023-02-13T23:26:51.668Z,4.50
2023-02-13T23:29:19.320Z,4.50
2023-02-13T23:31:46.891Z,4.60
2023-02-13T23:34:14.594Z,4.50
2023-02-13T23:36:42.048Z,4.60
2023-02-13T23:39:09.662Z,4.50
2023-02-13T23:41:37.207Z,4.60
2023-02-13T23:44:04.830Z,4.60
2023-02-13T23:46:32.512Z,4.60
2023-02-13T23:49:00.189Z,4.50
2023-02-13T23:51:27.603Z,4.50
2023-02-13T23:53:57.387Z,4.50
2023-02-13T23:56:25.752Z,4.50
2023-02-13T23:58:55.644Z,4.40
